Latest Weather Observations for Port Lincoln Airport

IDS60801

Issued at 2:31 pm CST Tuesday 30 May 2017 (issued every 30 minutes, with the page automatically refreshed every 10 minutes)

About weather observations | Map of weather stations | Latest weather observations for SA | Other Formats
Station Details ID: 018192 Name: PORT LINCOLN AWS Lat: -34.60 Lon: 135.88 Height: 8.5 m
Data from the previous 72 hours. | See also: Recent months at Port Lincoln Airport
Date/Time
CST
Temp
°C
App
Temp
°C
Dew
Point
°C
Rel
Hum
%
Delta-T
°C
Wind Press
QNH
hPa
Press
MSL
hPa
Rain since
9am
mm
Dir  Spd
km/h
Gust
km/h
Spd
kts
Gust
kts
30/02:30pm 15.0 9.0 3.2 45 5.3 SSE 24 30 13 16 1029.9 1029.9 0.0
30/02:00pm 15.7 10.4 5.0 49 5.0 SSE 22 28 12 15 1029.9 1029.9 0.0
30/01:30pm 15.6 10.1 4.0 46 5.3 SE 22 28 12 15 1030.0 1030.0 0.0
30/01:00pm 16.8 11.6 3.8 42 6.0 SSE 20 26 11 14 1030.2 1030.2 0.0
30/12:30pm 15.6 10.6 4.6 48 5.1 S 20 26 11 14 1030.2 1030.2 0.0
30/12:00pm 16.8 12.0 4.5 44 5.8 SSE 19 26 10 14 1030.5 1030.5 0.0
30/11:30am 15.7 9.7 5.3 50 4.9 SSE 26 33 14 18 1030.7 1030.7 0.0
30/11:00am 15.8 10.4 4.5 47 5.3 S 22 28 12 15 1030.9 1030.9 0.0
30/10:30am 14.7 9.1 5.2 53 4.4 SSE 24 33 13 18 1030.8 1030.8 0.0
30/10:00am 15.2 9.9 5.1 51 4.8 S 22 28 12 15 1030.6 1030.6 0.0
30/09:30am 14.4 9.6 5.5 55 4.2 S 20 28 11 15 1030.3 1030.3 0.0
30/09:00am 13.5 8.2 5.2 57 3.8 S 22 32 12 17 1030.0 1030.0 0.2
30/08:30am 13.3 9.8 7.1 66 3.0 SSW 15 22 8 12 1029.6 1029.6 0.2
30/08:00am 13.2 9.2 6.5 64 3.2 SSE 17 20 9 11 1029.2 1029.2 0.2
30/07:30am 12.3 6.8 5.7 64 3.1 S 24 32 13 17 1028.8 1028.8 0.2
30/07:00am 12.9 7.2 6.7 66 3.0 S 26 33 14 18 1028.3 1028.3 0.2
30/06:30am 12.3 8.8 7.4 72 2.4 SSW 15 20 8 11 1027.9 1027.9 0.2
30/06:00am 11.2 8.9 7.3 77 1.9 WSW 9 15 5 8 1027.4 1027.4 0.2
30/05:30am 11.5 8.2 6.4 71 2.4 SW 13 17 7 9 1027.0 1027.0 0.2
30/05:00am 12.3 7.0 7.0 70 2.5 SSW 24 30 13 16 1026.5 1026.5 0.2
30/04:30am 12.3 8.8 8.8 79 1.7 SW 17 20 9 11 1026.3 1026.3 0.2
30/04:00am 13.0 9.7 9.4 79 1.8 SSW 17 20 9 11 1026.0 1026.0 0.2
30/03:30am 13.2 9.4 9.8 80 1.7 SSW 20 26 11 14 1025.8 1025.8 0.2
30/03:00am 13.1 10.5 10.6 85 1.3 SSW 15 20 8 11 1025.7 1025.7 0.2
30/02:30am 13.1 10.7 11.3 89 0.9 SSW 15 19 8 10 1025.5 1025.5 0.2
30/02:00am 12.8 11.3 12.0 95 0.4 SSW 11 13 6 7 1025.1 1025.1 0.2
30/01:30am 12.9 10.3 12.1 95 0.4 SSW 17 24 9 13 1024.8 1024.8 0.2
30/01:00am 12.7 10.0 11.8 94 0.5 SSW 17 24 9 13 1024.7 1024.7 0.2
30/12:30am 12.9 10.1 11.5 91 0.7 WSW 17 26 9 14 1024.5 1024.5 0.2
30/12:00am 12.2 9.3 10.9 92 0.7 W 17 20 9 11 1024.3 1024.3 0.0
 
Date/Time
CST
Temp
°C
App
Temp
°C
Dew
Point
°C
Rel
Hum
%
Delta-T
°C
Wind Press
QNH
hPa
Press
MSL
hPa
Rain since
9am
mm
Dir  Spd
km/h
Gust
km/h
Spd
kts
Gust
kts
29/11:30pm 11.2 8.1 10.3 94 0.5 WNW 17 19 9 10 1024.3 1024.3 0.0
29/11:00pm 11.3 8.3 10.8 97 0.3 WNW 17 19 9 10 1024.2 1024.2 0.0
29/10:30pm 10.7 7.9 10.1 96 0.3 WNW 15 17 8 9 1024.2 1024.2 0.0
29/10:00pm 11.5 8.6 10.9 96 0.3 NW 17 17 9 9 1024.4 1024.4 0.0
29/09:30pm 11.7 9.1 10.8 94 0.5 NW 15 17 8 9 1024.4 1024.4 0.0
29/09:00pm 11.5 10.3 10.4 93 0.6 WNW 7 11 4 6 1024.3 1024.3 0.0
29/08:39pm 12.4 10.3 11.3 93 0.6 WNW 13 15 7 8 1024.2 1024.2 0.0
29/08:30pm 12.9 10.6 11.8 93 0.6 WNW 15 24 8 13 1024.0 1024.0 0.0
29/08:19pm 13.3 10.6 11.7 90 0.9 W 17 24 9 13 1024.2 1024.2 0.0
29/08:00pm 12.5 9.4 10.2 86 1.2 W 17 20 9 11 1023.9 1023.9 0.0
29/07:30pm 13.5 10.3 9.9 79 1.8 W 17 22 9 12 1023.6 1023.6 0.0
29/07:00pm 12.6 10.9 9.8 83 1.4 WNW 9 13 5 7 1023.3 1023.3 0.0
29/06:30pm 12.1 9.5 9.3 83 1.4 WNW 13 13 7 7 1023.1 1023.1 0.0
29/06:00pm 12.7 10.3 9.9 83 1.4 W 13 15 7 8 1022.7 1022.7 0.0
29/05:30pm 14.1 11.9 10.9 81 1.7 W 13 17 7 9 1022.4 1022.4 0.0
29/05:00pm 14.6 11.5 10.4 76 2.2 W 17 22 9 12 1022.1 1022.1 0.0
29/04:30pm 15.3 12.0 10.9 75 2.3 W 19 24 10 13 1022.0 1022.0 0.0
29/04:00pm 15.7 10.5 10.2 70 2.9 WNW 28 41 15 22 1021.9 1021.9 0.0
29/03:30pm 15.6 10.6 10.8 73 2.5 WNW 28 39 15 21 1021.6 1021.6 0.0
29/03:00pm 15.8 11.0 11.6 76 2.3 WNW 28 39 15 21 1021.6 1021.6 0.0
29/02:30pm 17.2 12.8 11.7 70 3.0 WNW 26 33 14 18 1021.3 1021.3 0.0
29/02:00pm 16.5 10.9 10.1 66 3.4 WNW 30 39 16 21 1021.2 1021.2 0.0
29/01:30pm 17.2 13.2 11.7 70 3.0 WNW 24 35 13 19 1021.5 1021.5 0.0
29/01:00pm 18.1 14.3 11.0 63 3.8 WSW 22 37 12 20 1021.5 1021.5 0.0
29/12:30pm 17.4 13.0 10.5 64 3.7 W 24 33 13 18 1021.8 1021.8 0.0
29/12:00pm 16.6 14.9 12.4 76 2.3 W 13 24 7 13 1022.1 1022.1 0.0
29/11:30am 15.4 12.4 12.7 84 1.5 NW 20 26 11 14 1022.7 1022.7 0.0
29/11:00am 15.9 13.5 12.5 80 1.9 NW 17 22 9 12 1022.9 1022.9 0.0
29/10:30am 14.8 12.1 12.8 88 1.1 NW 19 24 10 13 1022.9 1022.9 0.0
29/10:00am 14.0 10.4 12.0 88 1.1 NW 22 30 12 16 1022.8 1022.8 0.0
29/09:30am 13.7 11.2 12.3 91 0.8 WNW 17 20 9 11 1022.6 1022.6 0.0
29/09:00am 12.7 10.0 11.6 93 0.6 NW 17 24 9 13 1022.4 1022.4 0.6
29/08:30am 11.7 8.4 10.9 95 0.4 NW 19 24 10 13 1022.2 1022.2 0.6
29/08:00am 10.4 6.8 9.8 96 0.3 WNW 19 22 10 12 1021.9 1021.9 0.6
29/07:30am 9.8 7.2 9.2 96 0.3 WNW 13 19 7 10 1021.9 1021.9 0.4
29/07:00am 10.0 7.0 9.2 95 0.4 NW 15 20 8 11 1021.7 1021.7 0.4
29/06:30am 10.0 7.0 9.2 95 0.4 NW 15 19 8 10 1021.5 1021.5 0.4
29/06:00am 10.7 7.5 10.1 96 0.3 NW 17 20 9 11 1021.4 1021.4 0.4
29/05:30am 9.9 6.9 9.1 95 0.4 WNW 15 17 8 9 1021.0 1021.0 0.4
29/05:22am 10.0 7.4 9.2 95 0.4 NW 13 15 7 8 1020.9 1020.9 0.4
29/05:08am 10.6 7.4 9.8 95 0.4 WNW 17 20 9 11 1021.0 1021.0 0.4
29/05:00am 10.3 7.4 9.5 95 0.4 WNW 15 19 8 10 1021.0 1021.0 0.4
29/04:30am 9.8 7.1 9.0 95 0.4 NW 13 17 7 9 1020.9 1020.9 0.4
29/04:00am 10.0 7.0 9.2 95 0.4 NW 15 19 8 10 1020.9 1020.9 0.4
29/03:30am 10.2 7.7 9.6 96 0.3 WNW 13 15 7 8 1021.0 1021.0 0.4
29/03:00am 9.5 7.6 8.9 96 0.3 NW 9 11 5 6 1021.2 1021.2 0.4
29/02:30am 9.3 7.3 8.5 95 0.4 NNW 9 13 5 7 1021.0 1021.0 0.4
29/02:08am 10.6 7.7 9.8 95 0.4 NW 15 17 8 9 1021.1 1021.1 0.4
29/02:00am 10.8 8.0 10.0 95 0.4 NW 15 17 8 9 1021.1 1021.1 0.2
29/01:46am 10.8 7.2 9.9 94 0.5 NW 19 24 10 13 1021.1 1021.1 0.2
29/01:30am 10.6 7.4 9.8 95 0.4 WNW 17 20 9 11 1021.1 1021.1 0.2
29/01:00am 9.3 6.5 8.4 94 0.4 WNW 13 17 7 9 1021.0 1021.0 0.2
29/12:30am 9.9 6.8 9.0 94 0.4 WNW 15 19 8 10 1021.1 1021.1 0.2
29/12:00am 9.6 6.8 8.5 93 0.5 WNW 13 15 7 8 1021.2 1021.2 0.2
 
Date/Time
CST
Temp
°C
App
Temp
°C
Dew
Point
°C
Rel
Hum
%
Delta-T
°C
Wind Press
QNH
hPa
Press
MSL
hPa
Rain since
9am
mm
Dir  Spd
km/h
Gust
km/h
Spd
kts
Gust
kts
28/11:30pm 9.9 7.5 8.7 92 0.6 WNW 11 13 6 7 1021.4 1021.4 0.2
28/11:00pm 11.1 8.3 10.0 93 0.6 W 15 22 8 12 1021.3 1021.3 0.2
28/10:30pm 9.0 5.7 7.9 93 0.5 WNW 15 17 8 9 1021.2 1021.2 0.2
28/10:00pm 9.1 6.5 7.9 92 0.6 WNW 11 15 6 8 1021.4 1021.4 0.2
28/09:30pm 9.2 6.2 7.8 91 0.7 NW 13 15 7 8 1021.4 1021.4 0.2
28/09:00pm 10.0 7.4 7.9 87 1.0 W 11 15 6 8 1021.2 1021.2 0.2
28/08:30pm 10.7 7.5 8.6 87 1.0 W 15 17 8 9 1021.0 1021.0 0.2
28/08:00pm 10.4 7.3 8.7 89 0.8 W 15 17 8 9 1020.7 1020.7 0.2
28/07:30pm 10.7 8.0 8.8 88 0.9 WSW 13 17 7 9 1020.5 1020.5 0.2
28/07:00pm 11.0 7.9 8.8 86 1.1 W 15 20 8 11 1020.3 1020.3 0.2
28/06:30pm 10.3 7.7 7.9 85 1.2 W 11 13 6 7 1019.9 1019.9 0.2
28/06:00pm 11.2 9.1 8.2 82 1.5 WSW 9 13 5 7 1019.8 1019.8 0.2
28/05:30pm 12.3 9.5 8.6 78 1.8 WSW 13 15 7 8 1019.4 1019.4 0.2
28/05:00pm 13.6 11.3 8.9 73 2.4 SW 11 15 6 8 1019.1 1019.1 0.2
28/04:30pm 14.2 10.7 8.6 69 2.8 SW 17 24 9 13 1018.8 1018.8 0.2
28/04:00pm 15.1 11.2 9.5 69 2.9 SW 20 28 11 15 1018.3 1018.3 0.2
28/03:30pm 13.9 9.7 9.7 76 2.2 SW 22 32 12 17 1018.1 1018.1 0.2
28/03:00pm 14.7 10.4 9.3 70 2.8 SSW 22 32 12 17 1017.9 1017.9 0.2
28/02:30pm 16.8 10.7 8.2 57 4.4 SW 30 41 16 22 1017.4 1017.4 0.2
28/02:00pm 15.4 11.2 9.7 69 3.0 SW 22 32 12 17 1017.5 1017.5 0.2
28/01:30pm 15.3 9.6 11.3 77 2.1 SW 32 41 17 22 1017.6 1017.6 0.2
28/01:05pm 15.3 9.7 8.8 65 3.3 SW 28 46 15 25 1017.4 1017.4 0.2
28/01:00pm 15.1 9.2 9.0 67 3.1 SW 30 46 16 25 1017.6 1017.6 0.2
28/12:57pm 15.3 9.6 8.3 63 3.5 SW 28 46 15 25 1017.5 1017.5 0.2
28/12:30pm 15.7 9.5 8.0 60 3.9 SW 30 46 16 25 1017.3 1017.3 0.2
28/12:00pm 15.6 11.1 9.9 69 3.0 WSW 24 35 13 19 1017.5 1017.5 0.2
28/11:30am 14.5 9.2 9.7 73 2.5 WSW 28 44 15 24 1017.8 1017.8 0.2
28/11:00am 14.2 8.9 10.0 76 2.2 SW 28 50 15 27 1017.9 1017.9 0.2
28/10:30am 13.6 10.8 11.5 87 1.1 SW 17 24 9 13 1017.9 1017.9 0.2
28/10:00am 12.9 9.1 11.0 88 1.0 WSW 22 32 12 17 1017.6 1017.6 0.2
28/09:30am 12.5 7.6 10.0 85 1.3 WSW 26 37 14 20 1017.3 1017.3 0.0
28/09:00am 12.0 8.1 9.6 85 1.2 W 20 26 11 14 1017.0 1017.0 3.2
28/08:30am 12.1 8.9 10.0 87 1.1 W 17 24 9 13 1016.7 1016.7 3.2
28/08:00am 10.7 7.1 8.3 85 1.2 W 17 22 9 12 1016.7 1016.7 3.2
28/07:30am 9.8 6.3 7.1 83 1.3 WSW 15 17 8 9 1016.3 1016.3 3.2
28/07:00am 10.1 5.9 7.5 84 1.2 W 19 20 10 11 1016.0 1016.0 3.2
28/06:30am 10.0 6.2 7.6 85 1.1 W 17 24 9 13 1015.6 1015.6 3.0
28/06:00am 10.8 6.7 8.7 87 1.0 W 20 28 11 15 1015.5 1015.5 3.0
28/05:30am 10.2 6.5 7.8 85 1.2 W 17 20 9 11 1015.4 1015.4 2.8
28/05:00am 9.9 6.1 7.5 85 1.1 W 17 20 9 11 1015.3 1015.3 2.8
28/04:30am 9.5 5.6 7.3 86 1.0 W 17 20 9 11 1015.2 1015.2 2.8
28/04:00am 10.3 6.1 7.4 82 1.4 WSW 19 24 10 13 1015.3 1015.3 2.8
28/03:30am 9.9 6.0 7.3 84 1.2 WNW 17 20 9 11 1015.4 1015.4 2.8
28/03:00am 9.4 6.0 7.5 88 0.9 WNW 15 17 8 9 1015.6 1015.6 2.8
28/02:30am 9.4 7.0 7.2 86 1.0 WSW 9 13 5 7 1015.6 1015.6 2.8
28/02:00am 11.1 6.8 8.0 81 1.5 WSW 20 35 11 19 1015.6 1015.6 2.8
28/01:30am 10.2 5.9 6.9 80 1.6 W 19 22 10 12 1015.2 1015.2 2.8
28/01:00am 9.9 5.5 6.4 79 1.6 W 19 22 10 12 1015.5 1015.5 2.8
28/12:30am 10.3 5.7 6.6 78 1.7 W 20 28 11 15 1015.7 1015.7 2.8
28/12:00am 10.1 6.1 6.8 80 1.5 W 17 22 9 12 1015.6 1015.6 2.8
 
Date/Time
CST
Temp
°C
App
Temp
°C
Dew
Point
°C
Rel
Hum
%
Delta-T
°C
Wind Press
QNH
hPa
Press
MSL
hPa
Rain since
9am
mm
Dir  Spd
km/h
Gust
km/h
Spd
kts
Gust
kts
27/11:30pm 9.6 5.7 7.0 84 1.2 W 17 20 9 11 1015.6 1015.6 2.8
27/11:00pm 9.9 6.0 7.3 84 1.2 W 17 20 9 11 1015.7 1015.7 2.8
27/10:30pm 11.1 7.4 7.8 80 1.6 WSW 17 22 9 12 1015.8 1015.8 2.8
27/10:00pm 10.4 6.7 8.0 85 1.2 WSW 17 30 9 16 1015.9 1015.9 2.8
27/09:30pm 9.5 6.2 6.6 82 1.3 W 13 17 7 9 1015.4 1015.4 2.8
27/09:00pm 10.4 5.9 7.1 80 1.6 W 20 26 11 14 1015.2 1015.2 2.8
27/08:30pm 10.5 7.0 8.6 88 0.9 WSW 17 20 9 11 1015.0 1015.0 2.8
27/08:00pm 10.2 7.0 8.5 89 0.8 W 15 19 8 10 1014.7 1014.7 2.8
27/07:30pm 11.2 7.9 9.5 89 0.9 WSW 17 24 9 13 1014.9 1014.9 2.4
27/07:00pm 11.1 7.0 8.5 84 1.3 W 20 28 11 15 1014.2 1014.2 2.4
27/06:49pm 11.4 5.8 8.6 83 1.4 WSW 28 37 15 20 1014.0 1014.0 2.4
27/06:30pm 11.1 8.2 9.7 91 0.7 W 15 19 8 10 1013.7 1013.7 2.4
27/06:00pm 11.7 9.0 10.3 91 0.7 W 15 19 8 10 1013.4 1013.4 2.4
27/05:30pm 12.2 8.2 10.6 90 0.8 WSW 22 32 12 17 1013.0 1013.0 2.4
27/05:10pm 12.1 7.0 10.7 91 0.7 WSW 28 39 15 21 1012.9 1012.9 2.4
27/05:00pm 12.2 6.4 10.8 91 0.7 SW 32 48 17 26 1012.9 1012.9 2.4
27/04:56pm 12.4 6.5 10.6 89 0.9 WSW 32 48 17 26 1013.0 1013.0 2.4
27/04:53pm 12.8 7.7 10.5 86 1.2 WSW 28 48 15 26 1013.0 1013.0 2.2
27/04:30pm 14.1 9.2 11.4 84 1.4 WSW 28 37 15 20 1012.3 1012.3 1.4
27/04:00pm 14.6 8.4 11.4 81 1.7 W 35 56 19 30 1011.7 1011.7 1.4
27/03:56pm 15.3 9.5 10.9 75 2.3 W 32 56 17 30 1011.7 1011.7 1.4
27/03:30pm 15.7 11.4 11.9 78 2.1 WNW 26 33 14 18 1011.3 1011.3 1.4
27/03:00pm 14.8 10.2 12.3 85 1.4 WNW 28 37 15 20 1011.3 1011.3 1.4

Other Formats:

Comma delimited format used in spreadsheet applications
http://www.bom.gov.au/fwo/IDS60801/IDS60801.95661.axf

JavaScript Object Notation format (JSON) in row-major order
http://www.bom.gov.au/fwo/IDS60801/IDS60801.95661.json